sensor_id;sensor_type;location;lat;lon;timestamp;P1;durP1;ratioP1;P2;durP2;ratioP2
57199;SDS011;43061;43.902;22.266;2022-09-11T00:00:31;10.45;;;4.80;;
57199;SDS011;43061;43.902;22.266;2022-09-11T00:02:57;9.48;;;4.60;;
57199;SDS011;43061;43.902;22.266;2022-09-11T00:05:24;9.65;;;4.90;;
57199;SDS011;43061;43.902;22.266;2022-09-11T00:07:50;9.65;;;4.50;;
57199;SDS011;43061;43.902;22.266;2022-09-11T00:10:16;7.82;;;4.47;;
57199;SDS011;43061;43.902;22.266;2022-09-11T00:12:43;6.20;;;3.85;;
57199;SDS011;43061;43.902;22.266;2022-09-11T00:15:09;11.35;;;3.75;;
57199;SDS011;43061;43.902;22.266;2022-09-11T00:17:35;8.27;;;3.88;;
57199;SDS011;43061;43.902;22.266;2022-09-11T00:20:02;7.95;;;3.83;;
57199;SDS011;43061;43.902;22.266;2022-09-11T00:22:28;6.28;;;3.63;;
57199;SDS011;43061;43.902;22.266;2022-09-11T00:24:54;8.65;;;4.03;;
57199;SDS011;43061;43.902;22.266;2022-09-11T00:27:22;6.85;;;3.55;;
57199;SDS011;43061;43.902;22.266;2022-09-11T00:29:48;6.43;;;3.80;;
57199;SDS011;43061;43.902;22.266;2022-09-11T00:32:14;6.97;;;3.95;;
57199;SDS011;43061;43.902;22.266;2022-09-11T00:34:40;7.30;;;3.90;;
57199;SDS011;43061;43.902;22.266;2022-09-11T00:37:06;8.93;;;3.90;;
57199;SDS011;43061;43.902;22.266;2022-09-11T00:39:33;7.38;;;3.60;;
57199;SDS011;43061;43.902;22.266;2022-09-11T00:41:59;7.03;;;4.28;;
57199;SDS011;43061;43.902;22.266;2022-09-11T00:51:58;8.25;;;4.70;;
57199;SDS011;43061;43.902;22.266;2022-09-11T00:54:26;8.02;;;4.85;;
57199;SDS011;43061;43.902;22.266;2022-09-11T00:56:53;7.90;;;4.70;;
57199;SDS011;43061;43.902;22.266;2022-09-11T00:59:20;9.48;;;4.45;;
57199;SDS011;43061;43.902;22.266;2022-09-11T01:01:49;6.28;;;4.40;;
57199;SDS011;43061;43.902;22.266;2022-09-11T01:04:15;9.05;;;4.72;;
57199;SDS011;43061;43.902;22.266;2022-09-11T01:06:42;6.88;;;4.22;;
57199;SDS011;43061;43.902;22.266;2022-09-11T01:09:10;11.43;;;4.70;;
57199;SDS011;43061;43.902;22.266;2022-09-11T01:27:28;9.90;;;4.88;;
57199;SDS011;43061;43.902;22.266;2022-09-11T01:29:56;7.85;;;4.75;;
57199;SDS011;43061;43.902;22.266;2022-09-11T01:35:02;7.43;;;4.47;;
57199;SDS011;43061;43.902;22.266;2022-09-11T01:40:04;7.80;;;4.35;;
57199;SDS011;43061;43.902;22.266;2022-09-11T01:42:34;7.72;;;4.85;;
57199;SDS011;43061;43.902;22.266;2022-09-11T01:45:03;8.57;;;5.10;;
57199;SDS011;43061;43.902;22.266;2022-09-11T01:47:31;11.30;;;5.15;;
57199;SDS011;43061;43.902;22.266;2022-09-11T01:50:03;10.73;;;6.38;;
57199;SDS011;43061;43.902;22.266;2022-09-11T01:52:35;8.35;;;5.63;;
57199;SDS011;43061;43.902;22.266;2022-09-11T01:55:11;13.48;;;5.68;;
57199;SDS011;43061;43.902;22.266;2022-09-11T01:57:42;9.77;;;6.25;;
57199;SDS011;43061;43.902;22.266;2022-09-11T02:00:10;10.10;;;6.18;;
57199;SDS011;43061;43.902;22.266;2022-09-11T02:02:38;9.82;;;6.55;;
57199;SDS011;43061;43.902;22.266;2022-09-11T02:05:09;10.82;;;6.43;;
57199;SDS011;43061;43.902;22.266;2022-09-11T02:07:50;14.88;;;6.78;;
57199;SDS011;43061;43.902;22.266;2022-09-11T02:10:19;12.18;;;6.70;;
57199;SDS011;43061;43.902;22.266;2022-09-11T02:12:50;12.50;;;7.20;;
57199;SDS011;43061;43.902;22.266;2022-09-11T02:15:18;11.52;;;6.68;;
57199;SDS011;43061;43.902;22.266;2022-09-11T02:17:48;10.50;;;6.95;;
57199;SDS011;43061;43.902;22.266;2022-09-11T02:20:16;12.63;;;7.10;;
57199;SDS011;43061;43.902;22.266;2022-09-11T02:22:44;13.30;;;7.55;;
57199;SDS011;43061;43.902;22.266;2022-09-11T02:25:11;11.40;;;7.20;;
57199;SDS011;43061;43.902;22.266;2022-09-11T02:27:38;12.30;;;7.43;;
57199;SDS011;43061;43.902;22.266;2022-09-11T02:30:04;14.65;;;7.78;;
57199;SDS011;43061;43.902;22.266;2022-09-11T02:32:31;15.00;;;7.25;;
57199;SDS011;43061;43.902;22.266;2022-09-11T02:34:57;11.07;;;7.15;;
57199;SDS011;43061;43.902;22.266;2022-09-11T02:40:35;14.80;;;6.63;;
57199;SDS011;43061;43.902;22.266;2022-09-11T02:43:14;8.90;;;5.50;;
57199;SDS011;43061;43.902;22.266;2022-09-11T02:59:02;9.27;;;5.70;;
57199;SDS011;43061;43.902;22.266;2022-09-11T03:01:29;10.07;;;5.82;;
57199;SDS011;43061;43.902;22.266;2022-09-11T03:03:55;8.18;;;5.57;;
57199;SDS011;43061;43.902;22.266;2022-09-11T03:06:23;9.55;;;5.07;;
57199;SDS011;43061;43.902;22.266;2022-09-11T03:08:49;7.55;;;5.10;;
57199;SDS011;43061;43.902;22.266;2022-09-11T03:11:15;10.25;;;5.30;;
57199;SDS011;43061;43.902;22.266;2022-09-11T03:13:42;6.90;;;5.03;;
57199;SDS011;43061;43.902;22.266;2022-09-11T03:16:09;9.68;;;5.32;;
57199;SDS011;43061;43.902;22.266;2022-09-11T03:18:36;9.30;;;5.40;;
57199;SDS011;43061;43.902;22.266;2022-09-11T03:21:02;8.15;;;5.60;;
57199;SDS011;43061;43.902;22.266;2022-09-11T03:23:29;11.15;;;5.43;;
57199;SDS011;43061;43.902;22.266;2022-09-11T03:25:55;9.70;;;5.20;;
57199;SDS011;43061;43.902;22.266;2022-09-11T03:28:21;8.38;;;5.38;;
57199;SDS011;43061;43.902;22.266;2022-09-11T03:30:48;8.38;;;5.07;;
57199;SDS011;43061;43.902;22.266;2022-09-11T03:33:14;9.05;;;5.15;;
57199;SDS011;43061;43.902;22.266;2022-09-11T03:35:44;11.02;;;6.15;;
57199;SDS011;43061;43.902;22.266;2022-09-11T03:38:11;8.68;;;5.57;;
57199;SDS011;43061;43.902;22.266;2022-09-11T03:40:37;9.63;;;5.82;;
57199;SDS011;43061;43.902;22.266;2022-09-11T03:43:03;7.88;;;5.43;;
57199;SDS011;43061;43.902;22.266;2022-09-11T03:45:30;9.70;;;5.93;;
57199;SDS011;43061;43.902;22.266;2022-09-11T03:47:56;12.38;;;6.20;;
57199;SDS011;43061;43.902;22.266;2022-09-11T03:50:22;9.18;;;5.45;;
57199;SDS011;43061;43.902;22.266;2022-09-11T03:52:48;10.05;;;5.88;;
57199;SDS011;43061;43.902;22.266;2022-09-11T03:55:14;13.07;;;6.18;;
57199;SDS011;43061;43.902;22.266;2022-09-11T03:57:40;9.75;;;6.65;;
57199;SDS011;43061;43.902;22.266;2022-09-11T04:00:08;9.07;;;6.15;;
57199;SDS011;43061;43.902;22.266;2022-09-11T04:02:34;8.25;;;5.90;;
57199;SDS011;43061;43.902;22.266;2022-09-11T04:05:00;10.75;;;5.43;;
57199;SDS011;43061;43.902;22.266;2022-09-11T04:07:28;9.15;;;5.85;;
57199;SDS011;43061;43.902;22.266;2022-09-11T04:09:55;9.25;;;5.65;;
57199;SDS011;43061;43.902;22.266;2022-09-11T04:12:21;9.40;;;6.05;;
57199;SDS011;43061;43.902;22.266;2022-09-11T04:14:47;7.95;;;5.80;;
57199;SDS011;43061;43.902;22.266;2022-09-11T04:17:14;9.23;;;5.82;;
57199;SDS011;43061;43.902;22.266;2022-09-11T04:19:41;7.88;;;5.38;;
57199;SDS011;43061;43.902;22.266;2022-09-11T04:22:07;9.52;;;5.70;;
57199;SDS011;43061;43.902;22.266;2022-09-11T04:24:33;9.27;;;5.32;;
57199;SDS011;43061;43.902;22.266;2022-09-11T04:26:59;13.00;;;6.07;;
57199;SDS011;43061;43.902;22.266;2022-09-11T04:29:25;11.65;;;6.32;;
57199;SDS011;43061;43.902;22.266;2022-09-11T04:31:52;10.88;;;6.45;;
57199;SDS011;43061;43.902;22.266;2022-09-11T04:34:18;12.18;;;7.20;;
57199;SDS011;43061;43.902;22.266;2022-09-11T04:36:44;10.27;;;6.57;;
57199;SDS011;43061;43.902;22.266;2022-09-11T04:39:10;13.35;;;7.15;;
57199;SDS011;43061;43.902;22.266;2022-09-11T04:41:36;13.57;;;7.32;;
57199;SDS011;43061;43.902;22.266;2022-09-11T04:44:02;10.15;;;7.07;;
57199;SDS011;43061;43.902;22.266;2022-09-11T04:46:29;9.23;;;6.47;;
57199;SDS011;43061;43.902;22.266;2022-09-11T04:48:55;13.07;;;7.10;;
57199;SDS011;43061;43.902;22.266;2022-09-11T04:53:52;10.95;;;6.45;;
57199;SDS011;43061;43.902;22.266;2022-09-11T04:56:21;10.60;;;6.70;;
57199;SDS011;43061;43.902;22.266;2022-09-11T04:58:52;11.05;;;8.20;;
57199;SDS011;43061;43.902;22.266;2022-09-11T05:01:19;14.27;;;8.52;;
57199;SDS011;43061;43.902;22.266;2022-09-11T05:03:45;19.27;;;9.00;;
57199;SDS011;43061;43.902;22.266;2022-09-11T05:06:11;15.35;;;8.80;;
57199;SDS011;43061;43.902;22.266;2022-09-11T05:08:41;10.88;;;7.78;;
57199;SDS011;43061;43.902;22.266;2022-09-11T05:11:12;12.40;;;7.60;;
57199;SDS011;43061;43.902;22.266;2022-09-11T05:13:38;10.10;;;6.85;;
57199;SDS011;43061;43.902;22.266;2022-09-11T05:16:05;11.70;;;6.80;;
57199;SDS011;43061;43.902;22.266;2022-09-11T05:18:35;11.63;;;7.40;;
57199;SDS011;43061;43.902;22.266;2022-09-11T05:21:05;11.40;;;7.30;;
57199;SDS011;43061;43.902;22.266;2022-09-11T05:23:31;11.95;;;7.05;;
57199;SDS011;43061;43.902;22.266;2022-09-11T05:25:58;14.23;;;8.10;;
57199;SDS011;43061;43.902;22.266;2022-09-11T05:28:25;11.48;;;8.02;;
57199;SDS011;43061;43.902;22.266;2022-09-11T05:30:53;11.13;;;7.70;;
57199;SDS011;43061;43.902;22.266;2022-09-11T05:33:20;11.70;;;8.15;;
57199;SDS011;43061;43.902;22.266;2022-09-11T05:35:48;9.55;;;7.15;;
57199;SDS011;43061;43.902;22.266;2022-09-11T05:38:15;10.80;;;8.02;;
57199;SDS011;43061;43.902;22.266;2022-09-11T05:40:45;11.48;;;8.25;;
57199;SDS011;43061;43.902;22.266;2022-09-11T05:43:12;13.57;;;9.15;;
57199;SDS011;43061;43.902;22.266;2022-09-11T05:45:39;13.88;;;8.88;;
57199;SDS011;43061;43.902;22.266;2022-09-11T05:48:06;11.63;;;8.30;;
57199;SDS011;43061;43.902;22.266;2022-09-11T05:50:33;12.55;;;8.20;;
57199;SDS011;43061;43.902;22.266;2022-09-11T05:52:59;12.60;;;9.00;;
57199;SDS011;43061;43.902;22.266;2022-09-11T05:55:25;12.43;;;8.43;;
57199;SDS011;43061;43.902;22.266;2022-09-11T05:57:51;11.00;;;8.30;;
57199;SDS011;43061;43.902;22.266;2022-09-11T06:00:18;12.60;;;8.82;;
57199;SDS011;43061;43.902;22.266;2022-09-11T06:02:45;13.95;;;8.38;;
57199;SDS011;43061;43.902;22.266;2022-09-11T06:05:13;14.55;;;8.35;;
57199;SDS011;43061;43.902;22.266;2022-09-11T06:07:39;10.57;;;7.20;;
57199;SDS011;43061;43.902;22.266;2022-09-11T06:10:06;12.52;;;8.18;;
57199;SDS011;43061;43.902;22.266;2022-09-11T06:12:32;9.32;;;7.40;;
57199;SDS011;43061;43.902;22.266;2022-09-11T06:14:59;9.45;;;7.13;;
57199;SDS011;43061;43.902;22.266;2022-09-11T06:17:25;9.63;;;6.80;;
57199;SDS011;43061;43.902;22.266;2022-09-11T06:19:52;13.15;;;7.28;;
57199;SDS011;43061;43.902;22.266;2022-09-11T06:22:19;9.02;;;6.47;;
57199;SDS011;43061;43.902;22.266;2022-09-11T06:24:45;8.70;;;6.95;;
57199;SDS011;43061;43.902;22.266;2022-09-11T06:27:13;10.73;;;6.43;;
57199;SDS011;43061;43.902;22.266;2022-09-11T06:29:40;9.32;;;6.30;;
57199;SDS011;43061;43.902;22.266;2022-09-11T06:32:08;8.23;;;6.55;;
57199;SDS011;43061;43.902;22.266;2022-09-11T06:34:34;12.35;;;7.15;;
57199;SDS011;43061;43.902;22.266;2022-09-11T06:37:01;11.40;;;7.30;;
57199;SDS011;43061;43.902;22.266;2022-09-11T06:39:27;10.70;;;7.32;;
57199;SDS011;43061;43.902;22.266;2022-09-11T06:41:54;11.80;;;7.68;;
57199;SDS011;43061;43.902;22.266;2022-09-11T06:44:20;9.88;;;6.68;;
57199;SDS011;43061;43.902;22.266;2022-09-11T06:46:46;14.43;;;7.32;;
57199;SDS011;43061;43.902;22.266;2022-09-11T06:49:12;10.27;;;5.70;;
57199;SDS011;43061;43.902;22.266;2022-09-11T06:51:38;8.35;;;5.40;;
57199;SDS011;43061;43.902;22.266;2022-09-11T06:54:04;8.43;;;5.13;;
57199;SDS011;43061;43.902;22.266;2022-09-11T06:56:30;7.43;;;4.30;;
57199;SDS011;43061;43.902;22.266;2022-09-11T06:58:57;7.00;;;4.45;;
57199;SDS011;43061;43.902;22.266;2022-09-11T07:01:23;6.70;;;4.15;;
57199;SDS011;43061;43.902;22.266;2022-09-11T07:03:50;7.85;;;4.93;;
57199;SDS011;43061;43.902;22.266;2022-09-11T07:06:21;8.13;;;4.45;;
57199;SDS011;43061;43.902;22.266;2022-09-11T07:08:51;8.05;;;4.05;;
57199;SDS011;43061;43.902;22.266;2022-09-11T07:11:18;8.13;;;4.10;;
57199;SDS011;43061;43.902;22.266;2022-09-11T07:13:44;6.68;;;4.20;;
57199;SDS011;43061;43.902;22.266;2022-09-11T07:16:11;8.68;;;4.15;;
57199;SDS011;43061;43.902;22.266;2022-09-11T07:18:41;9.27;;;4.28;;
57199;SDS011;43061;43.902;22.266;2022-09-11T07:24:01;8.15;;;4.40;;
57199;SDS011;43061;43.902;22.266;2022-09-11T07:26:28;10.07;;;5.75;;
57199;SDS011;43061;43.902;22.266;2022-09-11T07:28:54;9.75;;;5.53;;
57199;SDS011;43061;43.902;22.266;2022-09-11T07:31:23;8.98;;;4.03;;
57199;SDS011;43061;43.902;22.266;2022-09-11T07:33:49;7.55;;;4.10;;
57199;SDS011;43061;43.902;22.266;2022-09-11T07:36:17;8.57;;;6.35;;
57199;SDS011;43061;43.902;22.266;2022-09-11T07:38:43;7.10;;;3.97;;
57199;SDS011;43061;43.902;22.266;2022-09-11T07:41:11;7.85;;;3.42;;
57199;SDS011;43061;43.902;22.266;2022-09-11T07:43:37;6.57;;;2.90;;
57199;SDS011;43061;43.902;22.266;2022-09-11T07:46:05;5.47;;;2.70;;
57199;SDS011;43061;43.902;22.266;2022-09-11T07:48:32;6.15;;;3.10;;
57199;SDS011;43061;43.902;22.266;2022-09-11T07:50:58;6.25;;;2.45;;
57199;SDS011;43061;43.902;22.266;2022-09-11T07:53:35;5.72;;;2.38;;
57199;SDS011;43061;43.902;22.266;2022-09-11T07:56:02;18.23;;;13.77;;
57199;SDS011;43061;43.902;22.266;2022-09-11T07:58:35;5.80;;;3.30;;
57199;SDS011;43061;43.902;22.266;2022-09-11T08:01:02;6.78;;;2.80;;
57199;SDS011;43061;43.902;22.266;2022-09-11T08:03:29;18.30;;;2.80;;
57199;SDS011;43061;43.902;22.266;2022-09-11T08:05:56;6.43;;;1.80;;
57199;SDS011;43061;43.902;22.266;2022-09-11T08:08:22;6.35;;;1.90;;
57199;SDS011;43061;43.902;22.266;2022-09-11T08:10:49;4.93;;;2.10;;
57199;SDS011;43061;43.902;22.266;2022-09-11T08:13:15;7.72;;;1.80;;
57199;SDS011;43061;43.902;22.266;2022-09-11T08:15:45;5.28;;;2.47;;
57199;SDS011;43061;43.902;22.266;2022-09-11T08:18:12;6.10;;;2.90;;
57199;SDS011;43061;43.902;22.266;2022-09-11T08:20:38;7.50;;;2.50;;
57199;SDS011;43061;43.902;22.266;2022-09-11T08:23:04;4.95;;;1.60;;
57199;SDS011;43061;43.902;22.266;2022-09-11T08:25:30;5.90;;;2.20;;
57199;SDS011;43061;43.902;22.266;2022-09-11T08:27:56;3.60;;;1.30;;
57199;SDS011;43061;43.902;22.266;2022-09-11T08:30:23;3.55;;;1.60;;
57199;SDS011;43061;43.902;22.266;2022-09-11T08:32:49;3.97;;;1.70;;
57199;SDS011;43061;43.902;22.266;2022-09-11T08:35:15;4.03;;;1.80;;
57199;SDS011;43061;43.902;22.266;2022-09-11T08:37:42;4.43;;;1.77;;
57199;SDS011;43061;43.902;22.266;2022-09-11T08:40:08;3.55;;;1.60;;
57199;SDS011;43061;43.902;22.266;2022-09-11T08:42:35;4.28;;;1.80;;
57199;SDS011;43061;43.902;22.266;2022-09-11T08:45:02;6.93;;;1.70;;
57199;SDS011;43061;43.902;22.266;2022-09-11T08:47:32;18.75;;;2.60;;
57199;SDS011;43061;43.902;22.266;2022-09-11T08:50:07;7.97;;;1.80;;
57199;SDS011;43061;43.902;22.266;2022-09-11T08:52:36;4.00;;;1.73;;
57199;SDS011;43061;43.902;22.266;2022-09-11T08:55:03;5.18;;;1.80;;
57199;SDS011;43061;43.902;22.266;2022-09-11T08:57:33;6.72;;;1.40;;
57199;SDS011;43061;43.902;22.266;2022-09-11T09:00:11;4.80;;;1.40;;
57199;SDS011;43061;43.902;22.266;2022-09-11T09:03:15;5.32;;;1.52;;
57199;SDS011;43061;43.902;22.266;2022-09-11T09:08:22;5.30;;;1.50;;
57199;SDS011;43061;43.902;22.266;2022-09-11T09:15:47;5.40;;;1.70;;
57199;SDS011;43061;43.902;22.266;2022-09-11T09:18:19;4.20;;;1.80;;
57199;SDS011;43061;43.902;22.266;2022-09-11T09:20:58;6.65;;;2.53;;
57199;SDS011;43061;43.902;22.266;2022-09-11T09:23:27;9.30;;;2.53;;
57199;SDS011;43061;43.902;22.266;2022-09-11T09:25:53;5.32;;;2.47;;
57199;SDS011;43061;43.902;22.266;2022-09-11T09:31:20;4.32;;;2.20;;
57199;SDS011;43061;43.902;22.266;2022-09-11T09:38:38;4.97;;;2.35;;
57199;SDS011;43061;43.902;22.266;2022-09-11T09:41:09;7.10;;;3.60;;
57199;SDS011;43061;43.902;22.266;2022-09-11T09:46:33;8.85;;;3.10;;
57199;SDS011;43061;43.902;22.266;2022-09-11T09:49:06;13.07;;;6.95;;
57199;SDS011;43061;43.902;22.266;2022-09-11T09:51:33;12.65;;;5.55;;
57199;SDS011;43061;43.902;22.266;2022-09-11T09:54:00;9.50;;;4.82;;
57199;SDS011;43061;43.902;22.266;2022-09-11T09:56:27;12.23;;;4.90;;
57199;SDS011;43061;43.902;22.266;2022-09-11T10:01:46;16.15;;;6.55;;
57199;SDS011;43061;43.902;22.266;2022-09-11T10:04:24;15.57;;;6.65;;
57199;SDS011;43061;43.902;22.266;2022-09-11T10:09:32;10.90;;;4.68;;
57199;SDS011;43061;43.902;22.266;2022-09-11T10:11:59;30.70;;;18.75;;
57199;SDS011;43061;43.902;22.266;2022-09-11T10:14:26;24.02;;;15.63;;
57199;SDS011;43061;43.902;22.266;2022-09-11T10:16:53;19.33;;;8.77;;
57199;SDS011;43061;43.902;22.266;2022-09-11T10:19:39;11.85;;;5.75;;
57199;SDS011;43061;43.902;22.266;2022-09-11T10:24:51;10.43;;;5.90;;
57199;SDS011;43061;43.902;22.266;2022-09-11T10:27:18;10.88;;;4.82;;
57199;SDS011;43061;43.902;22.266;2022-09-11T10:29:48;14.50;;;4.78;;
57199;SDS011;43061;43.902;22.266;2022-09-11T10:32:15;11.00;;;5.78;;
57199;SDS011;43061;43.902;22.266;2022-09-11T10:34:42;11.35;;;4.65;;
57199;SDS011;43061;43.902;22.266;2022-09-11T10:39:37;14.90;;;9.88;;
57199;SDS011;43061;43.902;22.266;2022-09-11T10:42:27;7.95;;;4.07;;
57199;SDS011;43061;43.902;22.266;2022-09-11T10:44:52;9.82;;;3.03;;
57199;SDS011;43061;43.902;22.266;2022-09-11T10:49:46;19.08;;;3.90;;
57199;SDS011;43061;43.902;22.266;2022-09-11T10:57:27;9.57;;;3.10;;
57199;SDS011;43061;43.902;22.266;2022-09-11T11:00:37;10.95;;;3.60;;
57199;SDS011;43061;43.902;22.266;2022-09-11T11:10:20;6.03;;;2.13;;
57199;SDS011;43061;43.902;22.266;2022-09-11T11:17:49;5.35;;;2.00;;
57199;SDS011;43061;43.902;22.266;2022-09-11T11:20:24;4.63;;;2.00;;
57199;SDS011;43061;43.902;22.266;2022-09-11T11:35:29;12.13;;;8.38;;
57199;SDS011;43061;43.902;22.266;2022-09-11T11:38:17;7.00;;;3.05;;
57199;SDS011;43061;43.902;22.266;2022-09-11T11:41:08;6.10;;;2.53;;
57199;SDS011;43061;43.902;22.266;2022-09-11T11:43:33;8.80;;;2.80;;
57199;SDS011;43061;43.902;22.266;2022-09-11T11:46:03;6.00;;;2.60;;
57199;SDS011;43061;43.902;22.266;2022-09-11T11:48:39;11.55;;;2.80;;
57199;SDS011;43061;43.902;22.266;2022-09-11T11:51:10;6.88;;;2.67;;
57199;SDS011;43061;43.902;22.266;2022-09-11T11:53:43;8.68;;;3.40;;
57199;SDS011;43061;43.902;22.266;2022-09-11T12:12:43;5.78;;;1.60;;
57199;SDS011;43061;43.902;22.266;2022-09-11T12:15:21;4.28;;;1.20;;
57199;SDS011;43061;43.902;22.266;2022-09-11T12:17:56;3.78;;;1.17;;
57199;SDS011;43061;43.902;22.266;2022-09-11T12:20:32;4.70;;;1.85;;
57199;SDS011;43061;43.902;22.266;2022-09-11T12:23:31;5.40;;;2.00;;
57199;SDS011;43061;43.902;22.266;2022-09-11T12:31:06;5.18;;;1.00;;
57199;SDS011;43061;43.902;22.266;2022-09-11T12:33:51;1.70;;;0.70;;
57199;SDS011;43061;43.902;22.266;2022-09-11T12:41:36;3.10;;;0.85;;
57199;SDS011;43061;43.902;22.266;2022-09-11T12:44:03;2.50;;;0.90;;
57199;SDS011;43061;43.902;22.266;2022-09-11T12:49:18;4.65;;;1.60;;
57199;SDS011;43061;43.902;22.266;2022-09-11T12:52:01;4.40;;;1.00;;
57199;SDS011;43061;43.902;22.266;2022-09-11T12:57:27;4.28;;;0.90;;
57199;SDS011;43061;43.902;22.266;2022-09-11T13:00:22;3.60;;;0.85;;
57199;SDS011;43061;43.902;22.266;2022-09-11T13:06:20;4.05;;;1.10;;
57199;SDS011;43061;43.902;22.266;2022-09-11T13:09:14;3.38;;;0.90;;
57199;SDS011;43061;43.902;22.266;2022-09-11T13:17:00;3.40;;;0.80;;
57199;SDS011;43061;43.902;22.266;2022-09-11T13:23:07;3.45;;;0.82;;
57199;SDS011;43061;43.902;22.266;2022-09-11T13:41:28;4.65;;;1.35;;
57199;SDS011;43061;43.902;22.266;2022-09-11T13:54:10;4.25;;;1.10;;
57199;SDS011;43061;43.902;22.266;2022-09-11T13:59:31;3.33;;;1.10;;
57199;SDS011;43061;43.902;22.266;2022-09-11T14:14:36;4.88;;;1.60;;
57199;SDS011;43061;43.902;22.266;2022-09-11T14:17:11;6.22;;;1.50;;
57199;SDS011;43061;43.902;22.266;2022-09-11T14:19:41;4.70;;;1.10;;
57199;SDS011;43061;43.902;22.266;2022-09-11T14:22:15;5.85;;;1.10;;
57199;SDS011;43061;43.902;22.266;2022-09-11T14:25:54;4.70;;;1.10;;
57199;SDS011;43061;43.902;22.266;2022-09-11T14:27:43;4.15;;;1.38;;
57199;SDS011;43061;43.902;22.266;2022-09-11T14:30:22;3.60;;;1.02;;
57199;SDS011;43061;43.902;22.266;2022-09-11T14:33:04;3.45;;;0.75;;
57199;SDS011;43061;43.902;22.266;2022-09-11T14:35:31;4.60;;;1.00;;
57199;SDS011;43061;43.902;22.266;2022-09-11T14:38:00;3.78;;;1.20;;
57199;SDS011;43061;43.902;22.266;2022-09-11T14:40:26;4.43;;;1.40;;
57199;SDS011;43061;43.902;22.266;2022-09-11T14:42:52;4.30;;;1.50;;
57199;SDS011;43061;43.902;22.266;2022-09-11T14:45:20;4.43;;;1.30;;
57199;SDS011;43061;43.902;22.266;2022-09-11T14:47:47;4.82;;;1.50;;
57199;SDS011;43061;43.902;22.266;2022-09-11T14:50:13;6.20;;;1.90;;
57199;SDS011;43061;43.902;22.266;2022-09-11T14:52:43;4.90;;;1.67;;
57199;SDS011;43061;43.902;22.266;2022-09-11T14:55:13;9.85;;;2.83;;
57199;SDS011;43061;43.902;22.266;2022-09-11T14:57:40;7.50;;;1.20;;
57199;SDS011;43061;43.902;22.266;2022-09-11T15:00:09;6.47;;;1.33;;
57199;SDS011;43061;43.902;22.266;2022-09-11T15:02:38;6.55;;;1.38;;
57199;SDS011;43061;43.902;22.266;2022-09-11T15:05:12;10.57;;;4.90;;
57199;SDS011;43061;43.902;22.266;2022-09-11T15:07:40;9.55;;;3.70;;
57199;SDS011;43061;43.902;22.266;2022-09-11T15:10:08;8.38;;;2.78;;
57199;SDS011;43061;43.902;22.266;2022-09-11T15:12:34;8.35;;;1.60;;
57199;SDS011;43061;43.902;22.266;2022-09-11T15:15:01;8.57;;;1.35;;
57199;SDS011;43061;43.902;22.266;2022-09-11T15:20:00;4.30;;;1.40;;
57199;SDS011;43061;43.902;22.266;2022-09-11T15:22:29;3.97;;;1.52;;
57199;SDS011;43061;43.902;22.266;2022-09-11T15:24:55;6.63;;;1.20;;
57199;SDS011;43061;43.902;22.266;2022-09-11T15:27:22;5.50;;;1.10;;
57199;SDS011;43061;43.902;22.266;2022-09-11T15:29:49;5.10;;;1.20;;
57199;SDS011;43061;43.902;22.266;2022-09-11T15:32:15;4.25;;;1.10;;
57199;SDS011;43061;43.902;22.266;2022-09-11T15:34:41;5.85;;;1.10;;
57199;SDS011;43061;43.902;22.266;2022-09-11T15:37:09;3.15;;;0.90;;
57199;SDS011;43061;43.902;22.266;2022-09-11T15:39:36;2.20;;;0.70;;
57199;SDS011;43061;43.902;22.266;2022-09-11T15:42:02;4.30;;;1.08;;
57199;SDS011;43061;43.902;22.266;2022-09-11T15:44:31;3.13;;;0.90;;
57199;SDS011;43061;43.902;22.266;2022-09-11T15:46:59;3.35;;;0.82;;
57199;SDS011;43061;43.902;22.266;2022-09-11T15:49:27;5.18;;;1.85;;
57199;SDS011;43061;43.902;22.266;2022-09-11T15:51:53;3.83;;;1.00;;
57199;SDS011;43061;43.902;22.266;2022-09-11T15:54:20;2.45;;;0.75;;
57199;SDS011;43061;43.902;22.266;2022-09-11T15:56:50;2.47;;;0.60;;
57199;SDS011;43061;43.902;22.266;2022-09-11T15:59:17;2.75;;;0.70;;
57199;SDS011;43061;43.902;22.266;2022-09-11T16:01:43;4.57;;;0.70;;
57199;SDS011;43061;43.902;22.266;2022-09-11T16:04:10;5.82;;;1.40;;
57199;SDS011;43061;43.902;22.266;2022-09-11T16:06:38;279.27;;;22.05;;
57199;SDS011;43061;43.902;22.266;2022-09-11T16:09:05;86.10;;;6.65;;
57199;SDS011;43061;43.902;22.266;2022-09-11T16:11:32;62.55;;;5.18;;
57199;SDS011;43061;43.902;22.266;2022-09-11T16:13:58;23.67;;;2.85;;
57199;SDS011;43061;43.902;22.266;2022-09-11T16:16:25;16.55;;;2.40;;
57199;SDS011;43061;43.902;22.266;2022-09-11T16:18:51;17.63;;;1.90;;
57199;SDS011;43061;43.902;22.266;2022-09-11T16:21:18;17.33;;;2.45;;
57199;SDS011;43061;43.902;22.266;2022-09-11T16:23:45;36.10;;;2.28;;
57199;SDS011;43061;43.902;22.266;2022-09-11T16:26:12;10.75;;;1.35;;
57199;SDS011;43061;43.902;22.266;2022-09-11T16:28:39;6.05;;;2.40;;
57199;SDS011;43061;43.902;22.266;2022-09-11T16:31:06;7.65;;;1.27;;
57199;SDS011;43061;43.902;22.266;2022-09-11T16:33:33;7.90;;;1.20;;
57199;SDS011;43061;43.902;22.266;2022-09-11T16:36:00;8.32;;;1.48;;
57199;SDS011;43061;43.902;22.266;2022-09-11T16:38:28;11.48;;;1.48;;
57199;SDS011;43061;43.902;22.266;2022-09-11T16:41:08;10.65;;;1.80;;
57199;SDS011;43061;43.902;22.266;2022-09-11T16:43:37;8.70;;;1.35;;
57199;SDS011;43061;43.902;22.266;2022-09-11T16:46:03;16.40;;;1.55;;
57199;SDS011;43061;43.902;22.266;2022-09-11T16:48:30;5.50;;;0.93;;
57199;SDS011;43061;43.902;22.266;2022-09-11T16:50:57;4.45;;;1.40;;
57199;SDS011;43061;43.902;22.266;2022-09-11T16:53:24;4.28;;;1.30;;
57199;SDS011;43061;43.902;22.266;2022-09-11T16:55:51;4.28;;;1.20;;
57199;SDS011;43061;43.902;22.266;2022-09-11T16:58:18;6.05;;;2.78;;
57199;SDS011;43061;43.902;22.266;2022-09-11T17:00:44;4.82;;;1.20;;
57199;SDS011;43061;43.902;22.266;2022-09-11T17:03:11;8.73;;;1.00;;
57199;SDS011;43061;43.902;22.266;2022-09-11T17:05:37;4.00;;;1.08;;
57199;SDS011;43061;43.902;22.266;2022-09-11T17:08:03;3.30;;;0.73;;
57199;SDS011;43061;43.902;22.266;2022-09-11T17:10:30;4.82;;;0.88;;
57199;SDS011;43061;43.902;22.266;2022-09-11T17:12:56;4.18;;;0.80;;
57199;SDS011;43061;43.902;22.266;2022-09-11T17:15:22;5.13;;;1.10;;
57199;SDS011;43061;43.902;22.266;2022-09-11T17:17:49;3.33;;;1.00;;
57199;SDS011;43061;43.902;22.266;2022-09-11T17:20:18;5.40;;;1.40;;
57199;SDS011;43061;43.902;22.266;2022-09-11T17:22:45;5.40;;;1.50;;
57199;SDS011;43061;43.902;22.266;2022-09-11T17:25:11;5.68;;;1.65;;
57199;SDS011;43061;43.902;22.266;2022-09-11T17:27:37;5.45;;;1.60;;
57199;SDS011;43061;43.902;22.266;2022-09-11T17:30:03;7.22;;;1.52;;
57199;SDS011;43061;43.902;22.266;2022-09-11T17:32:30;14.57;;;8.88;;
57199;SDS011;43061;43.902;22.266;2022-09-11T17:34:56;5.65;;;2.13;;
57199;SDS011;43061;43.902;22.266;2022-09-11T17:37:22;8.73;;;2.00;;
57199;SDS011;43061;43.902;22.266;2022-09-11T17:39:49;7.18;;;2.10;;
57199;SDS011;43061;43.902;22.266;2022-09-11T17:42:15;6.72;;;2.40;;
57199;SDS011;43061;43.902;22.266;2022-09-11T17:44:41;5.68;;;1.90;;
57199;SDS011;43061;43.902;22.266;2022-09-11T17:47:09;4.55;;;1.73;;
57199;SDS011;43061;43.902;22.266;2022-09-11T17:49:35;7.15;;;1.92;;
57199;SDS011;43061;43.902;22.266;2022-09-11T17:52:01;5.95;;;1.55;;
57199;SDS011;43061;43.902;22.266;2022-09-11T17:54:27;6.38;;;1.67;;
57199;SDS011;43061;43.902;22.266;2022-09-11T17:56:53;4.55;;;1.60;;
57199;SDS011;43061;43.902;22.266;2022-09-11T17:59:21;5.88;;;1.60;;